Time;durP1;ratioP1;P1;durP2;ratioP2;P2;SDS_P1;SDS_P2;PMS_P1;PMS_P2;Temp;Humidity;BMP_temperature;BMP_pressure;BME280_temperature;BME280_humidity;BME280_pressure;Samples;Min_cycle;Max_cycle;Signal;HPM_P1;HPM_P2
2022/08/19 00:01:16;;;;;;;8.20;7.50;;;;;;;;;;5092115;28;20435;-78
2022/08/19 00:03:44;;;;;;;8.63;7.93;;;;;;;;;;5092416;28;20936;-80
2022/08/19 00:06:12;;;;;;;7.93;7.30;;;;;;;;;;5092306;28;20480;-78
2022/08/19 00:08:40;;;;;;;7.93;7.23;;;;;;;;;;5094039;28;20435;-80
2022/08/19 00:11:08;;;;;;;7.77;7.00;;;;;;;;;;5092201;28;20800;-80
2022/08/19 00:13:35;;;;;;;7.83;7.03;;;;;;;;;;5087573;28;20444;-79
2022/08/19 00:16:03;;;;;;;8.53;6.97;;;;;;;;;;5088426;28;20577;-80
2022/08/19 00:18:30;;;;;;;8.43;7.57;;;;;;;;;;5091600;28;20436;-79
2022/08/19 00:20:59;;;;;;;8.60;7.43;;;;;;;;;;5091467;28;20446;-80
2022/08/19 00:23:27;;;;;;;8.63;7.80;;;;;;;;;;5091850;28;20439;-80
2022/08/19 00:25:55;;;;;;;8.07;7.27;;;;;;;;;;5092403;28;20463;-80
2022/08/19 00:28:22;;;;;;;8.47;7.77;;;;;;;;;;5092244;28;20443;-77
2022/08/19 00:30:51;;;;;;;8.97;8.17;;;;;;;;;;5093878;28;20526;-79
2022/08/19 00:33:18;;;;;;;8.97;7.80;;;;;;;;;;5092062;28;20510;-79
2022/08/19 00:35:46;;;;;;;8.43;7.63;;;;;;;;;;5087184;28;20565;-80
2022/08/19 00:38:13;;;;;;;8.03;7.20;;;;;;;;;;5088428;28;20434;-78
2022/08/19 00:40:40;;;;;;;9.40;8.50;;;;;;;;;;5091479;28;20441;-77
2022/08/19 00:43:12;;;;;;;9.70;8.73;;;;;;;;;;5091342;28;20530;-79
2022/08/19 00:45:43;;;;;;;8.50;7.70;;;;;;;;;;5091392;28;20557;-79
2022/08/19 00:48:10;;;;;;;9.60;7.90;;;;;;;;;;5091933;28;20793;-79
2022/08/19 00:50:40;;;;;;;10.43;8.63;;;;;;;;;;5091971;28;20543;-80
2022/08/19 00:53:08;;;;;;;9.90;8.20;;;;;;;;;;5093749;28;20443;-78
2022/08/19 00:55:35;;;;;;;9.30;8.40;;;;;;;;;;5090816;28;20823;-80
2022/08/19 00:58:06;;;;;;;10.17;9.07;;;;;;;;;;5087077;28;20780;-80
2022/08/19 01:00:36;;;;;;;9.63;8.63;;;;;;;;;;5086758;28;21998;-79
2022/08/19 01:03:04;;;;;;;10.73;9.73;;;;;;;;;;5091337;28;20443;-80
2022/08/19 01:05:31;;;;;;;9.90;9.00;;;;;;;;;;5091109;28;20991;-80
2022/08/19 01:08:00;;;;;;;10.23;9.20;;;;;;;;;;5091346;28;20428;-80
2022/08/19 01:10:29;;;;;;;15.50;9.83;;;;;;;;;;5090697;28;20545;-79
2022/08/19 01:12:57;;;;;;;13.60;9.60;;;;;;;;;;5091572;28;20547;-80
2022/08/19 01:15:28;;;;;;;16.33;10.50;;;;;;;;;;5093324;28;20574;-79
2022/08/19 01:17:57;;;;;;;11.67;9.20;;;;;;;;;;5091620;28;20443;-80
2022/08/19 01:20:24;;;;;;;10.10;8.93;;;;;;;;;;5087405;28;21844;-80
2022/08/19 01:22:54;;;;;;;12.30;11.00;;;;;;;;;;5092066;28;20435;-80
2022/08/19 01:25:23;;;;;;;11.03;9.80;;;;;;;;;;5094675;28;20558;-79
2022/08/19 01:27:51;;;;;;;12.63;10.10;;;;;;;;;;5093693;28;20518;-80
2022/08/19 01:30:21;;;;;;;13.67;9.30;;;;;;;;;;5093745;28;20450;-78
2022/08/19 01:32:48;;;;;;;12.10;9.23;;;;;;;;;;5095248;28;20460;-78
2022/08/19 01:35:17;;;;;;;11.30;10.10;;;;;;;;;;5094985;28;20536;-80
2022/08/19 01:37:47;;;;;;;15.23;10.67;;;;;;;;;;5095627;28;20538;-80
2022/08/19 01:40:16;;;;;;;18.20;10.53;;;;;;;;;;5094658;28;20530;-79
2022/08/19 01:42:43;;;;;;;14.30;11.40;;;;;;;;;;5089325;28;20438;-78
2022/08/19 01:45:11;;;;;;;13.60;10.27;;;;;;;;;;5091964;28;20547;-79
2022/08/19 01:47:38;;;;;;;11.90;9.90;;;;;;;;;;5094484;28;20442;-78
2022/08/19 01:50:06;;;;;;;12.77;10.20;;;;;;;;;;5093125;28;20534;-80
2022/08/19 01:52:36;;;;;;;13.87;11.20;;;;;;;;;;5094379;28;20537;-79
2022/08/19 01:55:03;;;;;;;11.33;10.20;;;;;;;;;;5094909;28;20554;-79
2022/08/19 01:57:31;;;;;;;13.30;10.07;;;;;;;;;;5095096;28;20866;-80
2022/08/19 01:59:59;;;;;;;13.80;11.37;;;;;;;;;;5096573;28;20447;-80
2022/08/19 02:02:26;;;;;;;11.03;9.97;;;;;;;;;;5094288;28;20447;-79
2022/08/19 02:04:53;;;;;;;11.13;9.17;;;;;;;;;;5089866;28;20960;-78
2022/08/19 02:07:21;;;;;;;11.37;9.93;;;;;;;;;;5091369;28;20449;-80
2022/08/19 02:09:48;;;;;;;12.17;10.93;;;;;;;;;;5094318;28;20441;-79
2022/08/19 02:12:16;;;;;;;10.93;9.77;;;;;;;;;;5094016;28;20442;-78
2022/08/19 02:14:44;;;;;;;14.60;10.40;;;;;;;;;;5092743;28;20459;-79
2022/08/19 02:17:12;;;;;;;10.87;9.67;;;;;;;;;;5094418;28;20493;-79
2022/08/19 02:19:39;;;;;;;14.30;11.07;;;;;;;;;;5094319;28;20550;-80
2022/08/19 02:22:06;;;;;;;14.90;12.80;;;;;;;;;;5096144;28;20536;-79
2022/08/19 02:24:33;;;;;;;13.20;11.30;;;;;;;;;;5094131;28;20462;-78
2022/08/19 02:27:01;;;;;;;11.90;10.70;;;;;;;;;;5089661;28;20432;-80
2022/08/19 02:29:28;;;;;;;12.00;10.90;;;;;;;;;;5090670;28;20867;-79
2022/08/19 02:31:56;;;;;;;13.87;11.50;;;;;;;;;;5093449;28;20547;-78
2022/08/19 02:34:24;;;;;;;16.70;11.37;;;;;;;;;;5093214;28;20493;-77
2022/08/19 02:36:52;;;;;;;12.57;11.33;;;;;;;;;;5093624;28;20483;-78
2022/08/19 02:39:18;;;;;;;15.63;12.20;;;;;;;;;;5094241;28;20446;-79
2022/08/19 02:41:45;;;;;;;15.97;11.17;;;;;;;;;;5093973;28;20425;-80
2022/08/19 02:44:13;;;;;;;12.60;10.60;;;;;;;;;;5095471;28;20444;-79
2022/08/19 02:46:40;;;;;;;16.53;11.30;;;;;;;;;;5093905;28;20402;-80
2022/08/19 02:49:09;;;;;;;12.87;11.57;;;;;;;;;;5089141;28;20489;-77
2022/08/19 02:51:38;;;;;;;13.50;12.20;;;;;;;;;;5090221;28;20439;-78
2022/08/19 02:54:06;;;;;;;18.20;12.20;;;;;;;;;;5093271;28;20444;-78
2022/08/19 02:56:35;;;;;;;14.53;11.33;;;;;;;;;;5093090;28;20522;-78
2022/08/19 02:59:05;;;;;;;12.43;11.10;;;;;;;;;;5093164;28;20439;-80
2022/08/19 03:01:33;;;;;;;13.53;12.17;;;;;;;;;;5092651;28;20481;-78
2022/08/19 03:04:02;;;;;;;13.43;12.03;;;;;;;;;;5092300;28;20546;-79
2022/08/19 03:06:31;;;;;;;15.10;13.60;;;;;;;;;;5095241;28;20554;-80
2022/08/19 03:08:58;;;;;;;14.63;12.67;;;;;;;;;;5092484;28;20431;-79
2022/08/19 03:11:27;;;;;;;16.00;12.80;;;;;;;;;;5089015;28;20427;-81
2022/08/19 03:13:54;;;;;;;12.83;11.40;;;;;;;;;;5089493;28;20532;-80
2022/08/19 03:16:22;;;;;;;14.07;12.67;;;;;;;;;;5091205;28;21059;-79
2022/08/19 03:18:49;;;;;;;15.87;13.80;;;;;;;;;;5092800;28;20534;-80
2022/08/19 03:21:17;;;;;;;13.57;12.17;;;;;;;;;;5092752;28;20526;-80
2022/08/19 03:23:46;;;;;;;15.83;12.83;;;;;;;;;;5093246;28;20860;-80
2022/08/19 03:26:14;;;;;;;13.90;12.00;;;;;;;;;;5091650;28;20483;-79
2022/08/19 03:28:42;;;;;;;18.33;12.80;;;;;;;;;;5095292;28;20410;-80
2022/08/19 03:31:13;;;;;;;14.80;12.80;;;;;;;;;;5093865;28;20524;-81
2022/08/19 03:33:41;;;;;;;15.40;13.33;;;;;;;;;;5088305;28;20861;-81
2022/08/19 03:36:10;;;;;;;18.20;12.60;;;;;;;;;;5088904;28;20479;-78
2022/08/19 03:38:38;;;;;;;12.80;11.57;;;;;;;;;;5091026;28;20864;-77
2022/08/19 03:41:08;;;;;;;15.47;13.87;;;;;;;;;;5091121;28;20435;-78
2022/08/19 03:43:35;;;;;;;12.50;11.33;;;;;;;;;;5090832;28;20714;-80
2022/08/19 03:46:04;;;;;;;14.37;12.83;;;;;;;;;;5092748;28;20532;-79
2022/08/19 03:48:31;;;;;;;13.70;12.27;;;;;;;;;;5092690;28;20470;-80
2022/08/19 03:50:59;;;;;;;13.70;12.40;;;;;;;;;;5094391;28;20420;-79
2022/08/19 03:53:27;;;;;;;15.43;12.20;;;;;;;;;;5093125;28;20431;-80
2022/08/19 03:55:54;;;;;;;15.03;12.27;;;;;;;;;;5087774;28;20536;-80
2022/08/19 03:58:23;;;;;;;14.60;13.07;;;;;;;;;;5088969;28;20827;-80
2022/08/19 04:00:50;;;;;;;14.57;13.07;;;;;;;;;;5091916;28;20801;-80
2022/08/19 04:03:18;;;;;;;13.20;12.00;;;;;;;;;;5092421;28;20418;-79
2022/08/19 04:05:46;;;;;;;15.97;12.50;;;;;;;;;;5091894;28;20444;-78
2022/08/19 04:08:15;;;;;;;14.40;12.40;;;;;;;;;;5092124;28;20417;-80
2022/08/19 04:10:42;;;;;;;13.80;12.13;;;;;;;;;;5092476;28;20940;-79
2022/08/19 04:13:09;;;;;;;14.80;13.40;;;;;;;;;;5094138;28;20847;-77
2022/08/19 04:15:42;;;;;;;14.93;13.17;;;;;;;;;;5092984;28;20474;-78
2022/08/19 04:18:09;;;;;;;14.20;12.77;;;;;;;;;;5086204;28;20470;-79
2022/08/19 04:20:40;;;;;;;16.27;14.43;;;;;;;;;;5088344;28;20899;-80
2022/08/19 04:23:08;;;;;;;15.30;13.30;;;;;;;;;;5090549;28;20789;-79
2022/08/19 04:25:37;;;;;;;14.13;12.63;;;;;;;;;;5091758;28;20858;-80
2022/08/19 04:28:04;;;;;;;14.07;12.60;;;;;;;;;;5091685;28;20801;-77
2022/08/19 04:30:31;;;;;;;15.67;14.07;;;;;;;;;;5092350;28;20832;-78
2022/08/19 04:33:00;;;;;;;15.67;14.23;;;;;;;;;;5091971;28;20551;-78
2022/08/19 04:35:27;;;;;;;15.23;13.83;;;;;;;;;;5093391;28;20455;-79
2022/08/19 04:37:54;;;;;;;15.57;13.87;;;;;;;;;;5092620;28;20896;-81
2022/08/19 04:43:03;;;;;;;16.87;15.17;;;;;;;;;;5088213;28;22239;-78
2022/08/19 04:45:30;;;;;;;22.50;15.23;;;;;;;;;;5091260;28;20520;-81
2022/08/19 04:47:58;;;;;;;16.27;14.77;;;;;;;;;;5091653;28;20781;-78
2022/08/19 04:50:26;;;;;;;16.70;15.00;;;;;;;;;;5091491;28;20785;-80
2022/08/19 04:52:55;;;;;;;18.50;16.70;;;;;;;;;;5091942;28;20458;-78
2022/08/19 04:55:25;;;;;;;17.13;15.37;;;;;;;;;;5092195;28;20471;-78
2022/08/19 04:57:52;;;;;;;18.60;16.70;;;;;;;;;;5098115;28;20474;-79
2022/08/19 05:00:19;;;;;;;17.40;15.77;;;;;;;;;;5096288;28;20526;-76
2022/08/19 05:02:46;;;;;;;19.00;17.27;;;;;;;;;;5091419;28;20504;-79
2022/08/19 05:05:14;;;;;;;18.20;16.50;;;;;;;;;;5092014;28;20513;-79
2022/08/19 05:07:45;;;;;;;18.63;16.67;;;;;;;;;;5095359;28;20782;-79
2022/08/19 05:10:12;;;;;;;18.20;16.50;;;;;;;;;;5094991;28;21010;-78
2022/08/19 05:12:40;;;;;;;18.90;17.03;;;;;;;;;;5095213;28;20530;-78
2022/08/19 05:15:08;;;;;;;19.10;17.30;;;;;;;;;;5095746;28;20998;-78
2022/08/19 05:17:35;;;;;;;20.00;18.00;;;;;;;;;;5095607;28;20490;-82
2022/08/19 05:22:47;;;;;;;21.37;19.20;;;;;;;;;;5095843;28;20428;-83
2022/08/19 05:25:18;;;;;;;22.77;20.57;;;;;;;;;;5090893;28;20557;-86
2022/08/19 05:27:46;;;;;;;20.53;18.50;;;;;;;;;;5091975;28;20432;-82
2022/08/19 05:30:13;;;;;;;22.50;20.30;;;;;;;;;;5094786;28;20500;-83
2022/08/19 05:32:41;;;;;;;22.50;20.30;;;;;;;;;;5094902;28;20414;-84
2022/08/19 05:35:09;;;;;;;22.10;19.90;;;;;;;;;;5094480;28;20565;-83
2022/08/19 05:37:36;;;;;;;22.17;20.07;;;;;;;;;;5095197;28;20924;-83
2022/08/19 05:40:05;;;;;;;22.80;20.50;;;;;;;;;;5095381;28;20513;-83
2022/08/19 05:42:33;;;;;;;23.83;21.47;;;;;;;;;;5096948;28;20518;-84
2022/08/19 05:45:00;;;;;;;23.50;21.40;;;;;;;;;;5095960;28;20553;-86
2022/08/19 05:47:27;;;;;;;26.40;23.90;;;;;;;;;;5090037;28;20920;-82
2022/08/19 05:49:55;;;;;;;22.47;20.13;;;;;;;;;;5091100;28;20431;-81
2022/08/19 05:52:22;;;;;;;23.27;20.83;;;;;;;;;;5094065;28;20515;-87
2022/08/19 05:54:50;;;;;;;23.20;20.83;;;;;;;;;;5094238;28;20533;-84
2022/08/19 05:57:19;;;;;;;25.53;22.90;;;;;;;;;;5094537;28;21003;-83
2022/08/19 05:59:51;;;;;;;24.97;22.43;;;;;;;;;;5094786;28;20555;-83
2022/08/19 06:02:18;;;;;;;23.40;20.97;;;;;;;;;;5094616;28;20451;-83
2022/08/19 06:04:45;;;;;;;24.00;21.60;;;;;;;;;;5096436;28;20558;-83
2022/08/19 06:07:12;;;;;;;22.43;20.33;;;;;;;;;;5095452;28;20526;-81
2022/08/19 06:09:40;;;;;;;23.60;21.10;;;;;;;;;;5090225;28;20518;-82
2022/08/19 06:12:08;;;;;;;23.30;21.00;;;;;;;;;;5090914;28;20478;-86
2022/08/19 06:14:36;;;;;;;21.47;19.53;;;;;;;;;;5093686;28;21237;-83
2022/08/19 06:17:04;;;;;;;23.33;21.07;;;;;;;;;;5093628;28;20479;-83
2022/08/19 06:19:31;;;;;;;22.20;20.00;;;;;;;;;;5094291;28;20653;-86
2022/08/19 06:22:00;;;;;;;26.33;23.27;;;;;;;;;;5093258;28;20542;-80
2022/08/19 06:24:28;;;;;;;24.87;22.27;;;;;;;;;;5094087;28;20538;-84
2022/08/19 06:26:57;;;;;;;23.47;21.10;;;;;;;;;;5094885;28;20534;-83
2022/08/19 06:29:25;;;;;;;25.00;22.40;;;;;;;;;;5095784;28;20443;-82
2022/08/19 06:31:55;;;;;;;26.20;23.50;;;;;;;;;;5089500;28;20528;-82
2022/08/19 06:34:23;;;;;;;25.60;22.90;;;;;;;;;;5088876;28;20486;-84
2022/08/19 06:36:51;;;;;;;24.90;22.50;;;;;;;;;;5092769;28;20485;-83
2022/08/19 06:39:20;;;;;;;24.97;22.57;;;;;;;;;;5092153;28;20868;-83
2022/08/19 06:41:48;;;;;;;26.00;23.30;;;;;;;;;;5093699;28;20441;-84
2022/08/19 06:44:16;;;;;;;27.00;24.20;;;;;;;;;;5092399;28;20526;-83
2022/08/19 06:46:43;;;;;;;27.23;23.60;;;;;;;;;;5093830;28;20559;-82
2022/08/19 06:49:13;;;;;;;25.77;23.07;;;;;;;;;;5095383;28;20927;-83
2022/08/19 06:51:41;;;;;;;26.20;22.90;;;;;;;;;;5095172;28;20526;-84
2022/08/19 06:54:09;;;;;;;25.50;22.80;;;;;;;;;;5089153;28;20988;-84
2022/08/19 06:56:36;;;;;;;27.80;24.80;;;;;;;;;;5088358;28;20447;-84
2022/08/19 06:59:05;;;;;;;25.83;20.30;;;;;;;;;;5091274;28;20928;-85
2022/08/19 07:01:37;;;;;;;25.33;22.73;;;;;;;;;;5093021;28;20444;-84
2022/08/19 07:04:06;;;;;;;27.90;25.10;;;;;;;;;;5093158;28;20967;-85
2022/08/19 07:06:35;;;;;;;23.60;21.13;;;;;;;;;;5093483;28;20456;-84
2022/08/19 07:09:02;;;;;;;28.77;24.07;;;;;;;;;;5093300;28;20871;-82
2022/08/19 07:11:30;;;;;;;25.00;22.30;;;;;;;;;;5095157;28;20444;-84
2022/08/19 07:13:58;;;;;;;23.17;20.83;;;;;;;;;;5094856;28;20951;-85
2022/08/19 07:16:25;;;;;;;23.67;21.20;;;;;;;;;;5088729;28;20447;-84
2022/08/19 07:18:52;;;;;;;28.53;25.50;;;;;;;;;;5088716;28;20487;-84
2022/08/19 07:21:21;;;;;;;29.40;24.67;;;;;;;;;;5092046;28;20531;-82
2022/08/19 07:23:50;;;;;;;27.10;23.50;;;;;;;;;;5091233;28;20802;-83
2022/08/19 07:26:19;;;;;;;25.20;22.70;;;;;;;;;;5092807;28;20546;-83
2022/08/19 07:28:46;;;;;;;24.37;21.50;;;;;;;;;;5091849;28;20444;-85
2022/08/19 07:31:14;;;;;;;24.10;21.60;;;;;;;;;;5092707;28;20497;-83
2022/08/19 07:33:42;;;;;;;24.20;21.73;;;;;;;;;;5093386;28;21038;-81
2022/08/19 07:36:12;;;;;;;23.17;20.70;;;;;;;;;;5094315;28;20497;-84
2022/08/19 07:38:40;;;;;;;35.03;23.87;;;;;;;;;;5087241;28;20479;-85
2022/08/19 07:41:10;;;;;;;26.97;24.17;;;;;;;;;;5088602;28;20460;-85
2022/08/19 07:43:37;;;;;;;28.70;25.40;;;;;;;;;;5090448;28;20520;-86
2022/08/19 07:46:04;;;;;;;28.43;23.93;;;;;;;;;;5091972;28;20455;-82
2022/08/19 07:48:32;;;;;;;23.77;21.33;;;;;;;;;;5092380;28;20430;-85
2022/08/19 07:51:02;;;;;;;29.47;25.70;;;;;;;;;;5092836;28;20454;-83
2022/08/19 07:53:31;;;;;;;28.20;25.33;;;;;;;;;;5092349;28;20455;-86
2022/08/19 07:56:03;;;;;;;28.80;25.80;;;;;;;;;;5094393;28;20903;-88
2022/08/19 07:58:32;;;;;;;27.73;24.23;;;;;;;;;;5093120;28;20491;-84
2022/08/19 08:01:00;;;;;;;28.03;25.07;;;;;;;;;;5089292;28;20938;-84
2022/08/19 08:11:36;;;;;;;30.40;24.70;;;;;;;;;;5071637;28;20655;-84
2022/08/19 08:14:09;;;;;;;27.27;21.97;;;;;;;;;;5072357;28;20466;-81
2022/08/19 08:16:37;;;;;;;31.73;25.97;;;;;;;;;;5081252;28;20920;-87
2022/08/19 08:19:05;;;;;;;31.73;27.63;;;;;;;;;;5094807;28;20506;-85
2022/08/19 08:21:32;;;;;;;31.23;26.87;;;;;;;;;;5094258;28;20443;-82
2022/08/19 08:24:00;;;;;;;35.07;29.27;;;;;;;;;;5087675;28;20424;-84
2022/08/19 08:26:28;;;;;;;33.60;26.47;;;;;;;;;;5087537;28;20477;-82
2022/08/19 08:28:56;;;;;;;28.03;24.80;;;;;;;;;;5091030;28;20964;-84
2022/08/19 08:31:24;;;;;;;28.80;24.47;;;;;;;;;;5091214;28;20501;-81
2022/08/19 08:33:55;;;;;;;28.17;24.40;;;;;;;;;;5091227;28;20463;-83
2022/08/19 08:36:24;;;;;;;30.40;25.43;;;;;;;;;;5091728;28;20884;-82
2022/08/19 08:38:52;;;;;;;35.20;28.30;;;;;;;;;;5091045;28;21048;-83
2022/08/19 08:41:27;;;;;;;31.57;25.63;;;;;;;;;;5089983;28;20444;-82
2022/08/19 08:43:55;;;;;;;28.73;25.13;;;;;;;;;;5086965;28;20423;-85
2022/08/19 08:46:26;;;;;;;31.37;27.27;;;;;;;;;;5089412;28;20451;-82
2022/08/19 08:49:07;;;;;;;31.80;25.47;;;;;;;;;;5091114;28;20877;-84
2022/08/19 08:51:36;;;;;;;27.37;24.47;;;;;;;;;;5090137;28;20804;-82
2022/08/19 08:54:04;;;;;;;31.63;27.73;;;;;;;;;;5092090;28;20439;-84
2022/08/19 08:56:35;;;;;;;29.63;24.67;;;;;;;;;;5089407;28;20486;-83
2022/08/19 08:59:07;;;;;;;36.33;29.10;;;;;;;;;;5072749;28;20844;-86
2022/08/19 09:01:35;;;;;;;34.87;28.40;;;;;;;;;;5073284;28;20438;-87
2022/08/19 09:04:06;;;;;;;30.90;27.40;;;;;;;;;;5082949;28;20436;-86
2022/08/19 09:06:38;;;;;;;39.57;31.30;;;;;;;;;;5085859;28;21021;-84
2022/08/19 09:09:07;;;;;;;33.83;27.70;;;;;;;;;;5089204;28;20475;-87
2022/08/19 09:11:43;;;;;;;30.30;27.00;;;;;;;;;;5091141;28;20500;-85
2022/08/19 09:14:13;;;;;;;28.23;24.80;;;;;;;;;;5091530;28;20443;-88
2022/08/19 09:16:41;;;;;;;29.93;26.67;;;;;;;;;;5091975;28;20526;-84
2022/08/19 09:19:10;;;;;;;28.70;24.90;;;;;;;;;;5090803;28;20921;-82
2022/08/19 09:21:38;;;;;;;32.57;26.30;;;;;;;;;;5092555;28;20440;-84
2022/08/19 09:24:06;;;;;;;31.33;27.90;;;;;;;;;;5092286;28;20439;-87
2022/08/19 09:26:34;;;;;;;26.43;22.83;;;;;;;;;;5089447;28;20581;-86
2022/08/19 09:29:01;;;;;;;18.40;15.90;;;;;;;;;;5086688;28;20924;-87
2022/08/19 09:31:32;;;;;;;16.80;15.00;;;;;;;;;;5089981;28;20785;-87
2022/08/19 09:33:59;;;;;;;21.03;17.97;;;;;;;;;;5089617;28;20471;-82
2022/08/19 09:36:32;;;;;;;20.47;18.40;;;;;;;;;;5091172;28;20461;-82
2022/08/19 09:39:02;;;;;;;20.13;17.77;;;;;;;;;;5091587;28;20495;-86
2022/08/19 09:41:29;;;;;;;23.13;20.53;;;;;;;;;;5091162;28;20435;-85
2022/08/19 09:43:57;;;;;;;21.50;19.30;;;;;;;;;;5076385;28;21023;-81
2022/08/19 09:46:25;;;;;;;19.93;17.70;;;;;;;;;;5076758;28;20456;-86
2022/08/19 09:48:53;;;;;;;19.27;16.70;;;;;;;;;;5084561;28;20613;-83
2022/08/19 09:51:21;;;;;;;18.80;16.90;;;;;;;;;;5090616;28;20522;-88
2022/08/19 09:53:51;;;;;;;16.33;14.53;;;;;;;;;;5092425;28;20439;-90
2022/08/19 09:56:22;;;;;;;18.43;15.80;;;;;;;;;;5093498;28;20571;-85
2022/08/19 09:58:49;;;;;;;17.50;14.80;;;;;;;;;;5093333;28;20569;-87
2022/08/19 10:01:24;;;;;;;15.10;13.07;;;;;;;;;;5093487;28;21023;-82
2022/08/19 10:03:53;;;;;;;16.20;14.60;;;;;;;;;;5094588;28;20538;-85
2022/08/19 10:06:20;;;;;;;17.27;15.47;;;;;;;;;;5095687;28;20471;-81
2022/08/19 10:08:48;;;;;;;14.23;12.00;;;;;;;;;;5097183;28;20962;-81
2022/08/19 10:11:17;;;;;;;16.07;14.47;;;;;;;;;;5093061;28;20527;-88
2022/08/19 10:13:44;;;;;;;12.80;11.50;;;;;;;;;;5089846;28;20428;-85
2022/08/19 10:16:14;;;;;;;11.20;10.10;;;;;;;;;;5091306;28;21026;-85
2022/08/19 10:18:42;;;;;;;10.33;9.20;;;;;;;;;;5092785;28;20479;-79
2022/08/19 10:21:10;;;;;;;15.63;14.23;;;;;;;;;;5092836;28;20435;-85
2022/08/19 10:23:38;;;;;;;15.57;12.87;;;;;;;;;;5094234;28;20471;-83
2022/08/19 10:26:06;;;;;;;13.50;11.53;;;;;;;;;;5094828;28;20538;-85
2022/08/19 10:28:37;;;;;;;12.93;11.73;;;;;;;;;;5093527;28;20463;-84
2022/08/19 10:31:06;;;;;;;11.10;10.07;;;;;;;;;;5095822;28;20943;-82
2022/08/19 10:33:33;;;;;;;13.10;10.67;;;;;;;;;;5094898;28;20443;-82
2022/08/19 10:36:01;;;;;;;10.17;9.27;;;;;;;;;;5089251;28;20443;-81
2022/08/19 10:38:29;;;;;;;15.00;10.90;;;;;;;;;;5090323;28;20582;-83
2022/08/19 10:40:56;;;;;;;10.93;9.93;;;;;;;;;;5093287;28;20451;-83
2022/08/19 10:43:24;;;;;;;13.07;11.43;;;;;;;;;;5093367;28;20857;-83
2022/08/19 10:45:57;;;;;;;11.33;10.33;;;;;;;;;;5093543;28;20469;-83
2022/08/19 10:48:24;;;;;;;12.40;11.30;;;;;;;;;;5093995;28;20447;-84
2022/08/19 10:53:35;;;;;;;11.73;10.63;;;;;;;;;;5094476;28;20784;-85
2022/08/19 10:58:44;;;;;;;12.60;11.50;;;;;;;;;;5088518;28;20481;-81
2022/08/19 11:01:15;;;;;;;12.73;11.50;;;;;;;;;;5089871;28;20431;-80
2022/08/19 11:03:45;;;;;;;12.57;11.40;;;;;;;;;;5092392;28;21023;-82
2022/08/19 11:06:12;;;;;;;13.53;12.23;;;;;;;;;;5092844;28;20456;-82
2022/08/19 11:08:43;;;;;;;15.67;13.40;;;;;;;;;;5091727;28;20811;-81
2022/08/19 11:11:10;;;;;;;14.33;12.80;;;;;;;;;;5092466;28;20823;-83
2022/08/19 11:13:39;;;;;;;15.97;14.37;;;;;;;;;;5093691;28;20538;-80
2022/08/19 11:16:08;;;;;;;13.40;12.20;;;;;;;;;;5095097;28;20470;-81
2022/08/19 11:18:40;;;;;;;12.40;11.30;;;;;;;;;;5093792;28;20503;-82
2022/08/19 11:21:08;;;;;;;10.80;9.83;;;;;;;;;;5088364;28;20442;-81
2022/08/19 11:23:39;;;;;;;12.60;11.30;;;;;;;;;;5087818;28;20428;-82
2022/08/19 11:26:06;;;;;;;12.13;11.03;;;;;;;;;;5091892;28;20542;-82
2022/08/19 11:28:36;;;;;;;13.90;11.50;;;;;;;;;;5086451;28;20460;-81
2022/08/19 11:31:04;;;;;;;10.10;9.20;;;;;;;;;;5081823;28;20443;-82
2022/08/19 11:33:32;;;;;;;9.73;8.83;;;;;;;;;;5075364;28;20452;-81
2022/08/19 11:36:09;;;;;;;11.60;10.60;;;;;;;;;;5075156;28;20583;-81
2022/08/19 11:38:50;;;;;;;10.10;9.10;;;;;;;;;;5085186;28;20461;-86
2022/08/19 11:41:22;;;;;;;10.60;9.60;;;;;;;;;;5089477;28;20954;-81
2022/08/19 11:43:55;;;;;;;10.80;9.60;;;;;;;;;;5090725;28;20451;-81
2022/08/19 11:46:29;;;;;;;13.23;12.00;;;;;;;;;;5090093;28;20459;-81
2022/08/19 11:48:58;;;;;;;27.43;23.00;;;;;;;;;;5090654;28;20447;-80
2022/08/19 11:51:27;;;;;;;20.50;17.87;;;;;;;;;;5092576;28;20454;-80
2022/08/19 11:53:55;;;;;;;31.40;24.60;;;;;;;;;;5090416;28;21028;-81
2022/08/19 11:56:23;;;;;;;28.10;24.17;;;;;;;;;;5094023;28;21056;-80
2022/08/19 11:58:50;;;;;;;19.73;17.23;;;;;;;;;;5091935;28;21055;-82
2022/08/19 12:01:19;;;;;;;17.73;15.43;;;;;;;;;;5087994;28;20431;-82
2022/08/19 12:03:46;;;;;;;13.27;12.07;;;;;;;;;;5089011;28;20435;-84
2022/08/19 12:06:15;;;;;;;15.40;12.63;;;;;;;;;;5091583;28;20550;-82
2022/08/19 12:08:44;;;;;;;13.73;10.90;;;;;;;;;;5091700;28;20482;-80
2022/08/19 12:11:13;;;;;;;11.30;10.20;;;;;;;;;;5091861;28;20493;-82
2022/08/19 12:13:51;;;;;;;10.40;9.53;;;;;;;;;;5091051;28;20528;-83
2022/08/19 12:16:20;;;;;;;10.80;9.80;;;;;;;;;;5092626;28;20554;-83
2022/08/19 12:18:47;;;;;;;10.40;9.23;;;;;;;;;;5092811;28;20553;-81
2022/08/19 12:21:16;;;;;;;11.57;9.90;;;;;;;;;;5090945;28;20470;-81
2022/08/19 12:23:48;;;;;;;11.07;9.00;;;;;;;;;;5077999;28;20436;-82
2022/08/19 12:26:15;;;;;;;10.60;9.30;;;;;;;;;;5088462;28;20439;-79
2022/08/19 12:28:44;;;;;;;9.67;8.67;;;;;;;;;;5091510;28;20546;-82
2022/08/19 12:31:15;;;;;;;8.60;7.80;;;;;;;;;;5091603;28;20543;-80
2022/08/19 12:33:43;;;;;;;8.50;7.83;;;;;;;;;;5090221;28;20540;-80
2022/08/19 12:36:13;;;;;;;8.40;7.60;;;;;;;;;;5092003;28;20558;-86
2022/08/19 12:38:41;;;;;;;8.50;7.67;;;;;;;;;;5090766;28;20548;-81
2022/08/19 12:41:17;;;;;;;10.70;9.70;;;;;;;;;;5093786;28;20564;-81
2022/08/19 12:43:48;;;;;;;9.40;8.60;;;;;;;;;;5090189;28;20803;-83
2022/08/19 12:46:17;;;;;;;10.00;9.10;;;;;;;;;;5086797;28;20892;-81
2022/08/19 12:48:49;;;;;;;11.07;9.17;;;;;;;;;;5088760;28;20431;-82
2022/08/19 12:51:20;;;;;;;9.83;8.90;;;;;;;;;;5091647;28;20924;-81
2022/08/19 12:53:48;;;;;;;9.73;8.70;;;;;;;;;;5090237;28;20527;-80
2022/08/19 12:56:19;;;;;;;10.43;9.33;;;;;;;;;;5090175;28;20469;-83
2022/08/19 12:58:46;;;;;;;10.33;7.97;;;;;;;;;;5090596;28;20682;-84
2022/08/19 13:01:17;;;;;;;9.97;9.07;;;;;;;;;;5092423;28;20482;-85
2022/08/19 13:03:48;;;;;;;9.50;8.60;;;;;;;;;;5093770;28;20450;-87
2022/08/19 13:06:16;;;;;;;10.40;9.20;;;;;;;;;;5089395;28;20455;-83
2022/08/19 13:08:46;;;;;;;9.03;8.23;;;;;;;;;;5086881;28;20545;-84
2022/08/19 13:11:24;;;;;;;9.60;8.80;;;;;;;;;;5089502;28;20523;-86
2022/08/19 13:13:52;;;;;;;9.57;8.67;;;;;;;;;;5093109;28;20427;-85
2022/08/19 13:16:23;;;;;;;9.13;8.10;;;;;;;;;;5091801;28;20456;-87
2022/08/19 13:18:52;;;;;;;9.00;8.10;;;;;;;;;;5095599;28;20489;-84
2022/08/19 13:21:23;;;;;;;8.33;7.20;;;;;;;;;;5095509;28;20475;-85
2022/08/19 13:23:53;;;;;;;8.07;7.37;;;;;;;;;;5096688;28;20777;-87
2022/08/19 13:26:22;;;;;;;7.97;7.27;;;;;;;;;;5097421;28;20474;-86
2022/08/19 13:34:21;;;;;;;7.93;7.20;;;;;;;;;;5093313;28;20546;-81
2022/08/19 13:36:48;;;;;;;7.07;6.47;;;;;;;;;;5095197;28;20576;-81
2022/08/19 13:39:18;;;;;;;8.93;7.87;;;;;;;;;;5095186;28;20569;-84
2022/08/19 13:41:50;;;;;;;9.73;7.63;;;;;;;;;;5095543;28;20471;-86
2022/08/19 13:44:18;;;;;;;8.70;7.40;;;;;;;;;;5094351;28;20838;-81
2022/08/19 13:46:46;;;;;;;9.50;7.43;;;;;;;;;;5096103;28;20489;-84
2022/08/19 13:49:20;;;;;;;7.97;7.17;;;;;;;;;;5095730;28;20544;-85
2022/08/19 13:51:50;;;;;;;10.73;7.33;;;;;;;;;;5092412;28;20485;-87
2022/08/19 13:54:17;;;;;;;8.23;7.40;;;;;;;;;;5090034;28;20419;-82
2022/08/19 13:56:45;;;;;;;8.43;7.70;;;;;;;;;;5093516;28;20526;-82
2022/08/19 13:59:21;;;;;;;9.00;7.97;;;;;;;;;;5094223;28;20479;-84
2022/08/19 14:01:53;;;;;;;8.27;7.27;;;;;;;;;;5094296;28;20526;-83
2022/08/19 14:04:20;;;;;;;8.53;7.67;;;;;;;;;;5094876;28;20443;-84
2022/08/19 14:06:48;;;;;;;9.27;6.87;;;;;;;;;;5094142;28;20435;-82
2022/08/19 14:09:15;;;;;;;7.33;6.63;;;;;;;;;;5096816;28;20431;-87
2022/08/19 14:11:45;;;;;;;8.27;6.87;;;;;;;;;;5096567;28;20441;-86
2022/08/19 14:14:19;;;;;;;7.40;6.63;;;;;;;;;;5090693;28;20443;-89
2022/08/19 14:16:52;;;;;;;8.80;7.77;;;;;;;;;;5089873;28;20491;-86
2022/08/19 14:19:26;;;;;;;8.97;7.47;;;;;;;;;;5093436;28;20478;-84
2022/08/19 14:21:58;;;;;;;7.77;6.90;;;;;;;;;;5093980;28;20453;-85
2022/08/19 14:24:26;;;;;;;8.97;7.30;;;;;;;;;;5094075;28;20482;-85
2022/08/19 14:26:59;;;;;;;7.83;7.13;;;;;;;;;;5093113;28;20471;-82
2022/08/19 14:29:30;;;;;;;7.50;6.77;;;;;;;;;;5093696;28;21040;-85
2022/08/19 14:32:05;;;;;;;8.80;7.43;;;;;;;;;;5096212;28;20443;-83
2022/08/19 14:34:37;;;;;;;7.40;6.60;;;;;;;;;;5096054;28;20972;-86
2022/08/19 14:37:09;;;;;;;7.00;6.40;;;;;;;;;;5089146;28;20936;-86
2022/08/19 14:39:39;;;;;;;8.27;7.50;;;;;;;;;;5090487;28;20478;-84
2022/08/19 14:42:11;;;;;;;7.47;6.50;;;;;;;;;;5093170;28;20835;-85
2022/08/19 14:44:41;;;;;;;7.70;6.47;;;;;;;;;;5093970;28;20463;-83
2022/08/19 14:47:13;;;;;;;6.60;5.90;;;;;;;;;;5094127;28;20928;-81
2022/08/19 14:49:43;;;;;;;6.97;6.20;;;;;;;;;;5095071;28;20443;-84
2022/08/19 14:52:10;;;;;;;6.80;5.37;;;;;;;;;;5094512;28;20560;-84
2022/08/19 14:54:39;;;;;;;5.87;5.30;;;;;;;;;;5095954;28;20897;-82
2022/08/19 14:57:10;;;;;;;6.17;4.73;;;;;;;;;;5098202;28;20447;-89